Time;durP1;ratioP1;P1;durP2;ratioP2;P2;SDS_P1;SDS_P2;PMS_P1;PMS_P2;Temp;Humidity;BMP_temperature;BMP_pressure;BME280_temperature;BME280_humidity;BME280_pressure;Samples;Min_cycle;Max_cycle;Signal;HPM_P1;HPM_P2
2022/07/27 00:01:41;;;;;;;1.70;1.60;;;18.40;99.90;;;;;;5050805;28;20445;-73
2022/07/27 00:04:07;;;;;;;1.80;1.70;;;18.40;99.90;;;;;;5050197;28;20998;-73
2022/07/27 00:06:35;;;;;;;2.60;1.80;;;18.40;99.90;;;;;;5049934;28;20984;-73
2022/07/27 00:09:01;;;;;;;4.10;1.90;;;18.40;99.90;;;;;;5050340;28;20839;-73
2022/07/27 00:11:29;;;;;;;1.90;1.80;;;18.30;99.90;;;;;;5048661;28;20427;-73
2022/07/27 00:13:56;;;;;;;3.57;2.10;;;18.30;99.90;;;;;;5050072;28;20459;-73
2022/07/27 00:16:22;;;;;;;2.30;2.10;;;18.20;99.90;;;;;;5049594;28;20490;-73
2022/07/27 00:18:49;;;;;;;1.83;1.70;;;18.20;99.90;;;;;;5049789;28;20444;-73
2022/07/27 00:21:16;;;;;;;1.93;1.83;;;18.10;99.90;;;;;;5049955;28;20423;-73
2022/07/27 00:23:42;;;;;;;9.30;2.20;;;18.00;99.90;;;;;;5046506;28;20423;-73
2022/07/27 00:26:09;;;;;;;2.33;2.13;;;18.00;99.90;;;;;;5049843;28;20452;-73
2022/07/27 00:28:37;;;;;;;2.37;2.23;;;18.00;99.90;;;;;;5050122;28;20431;-73
2022/07/27 00:31:04;;;;;;;2.10;2.00;;;17.90;99.90;;;;;;5049961;28;20506;-72
2022/07/27 00:33:30;;;;;;;3.00;1.97;;;17.90;99.90;;;;;;5048847;28;20546;-73
2022/07/27 00:35:57;;;;;;;2.20;2.10;;;17.90;99.90;;;;;;5049825;28;20489;-73
2022/07/27 00:38:24;;;;;;;2.57;2.37;;;17.80;99.90;;;;;;5049585;28;20464;-73
2022/07/27 00:40:51;;;;;;;3.47;1.90;;;17.90;99.90;;;;;;5049928;28;20927;-73
2022/07/27 00:43:17;;;;;;;2.10;2.00;;;17.90;99.90;;;;;;5050039;28;20424;-73
2022/07/27 00:45:46;;;;;;;2.37;2.17;;;17.90;99.90;;;;;;5049606;28;20434;-73
2022/07/27 00:48:12;;;;;;;3.10;2.13;;;17.80;99.90;;;;;;5047021;28;20439;-73
2022/07/27 00:50:42;;;;;;;2.13;2.03;;;17.80;99.90;;;;;;5049852;28;20427;-72
2022/07/27 00:53:09;;;;;;;3.93;2.20;;;17.80;99.90;;;;;;5049586;28;20507;-73
2022/07/27 00:55:36;;;;;;;1.97;1.80;;;17.80;99.90;;;;;;5049907;28;20448;-73
2022/07/27 00:58:04;;;;;;;3.30;2.50;;;17.80;99.90;;;;;;5050085;28;20835;-73
2022/07/27 01:00:31;;;;;;;3.73;2.10;;;17.80;99.90;;;;;;5049712;28;20500;-73
2022/07/27 01:02:59;;;;;;;2.30;2.10;;;17.80;99.90;;;;;;5049492;28;20459;-73
2022/07/27 01:05:26;;;;;;;3.20;2.27;;;17.80;99.90;;;;;;5050000;28;20445;-73
2022/07/27 01:07:53;;;;;;;2.17;1.97;;;17.70;99.90;;;;;;5049459;28;20468;-73
2022/07/27 01:10:20;;;;;;;2.00;1.90;;;17.80;99.90;;;;;;5049815;28;20469;-73
2022/07/27 01:12:47;;;;;;;2.27;2.13;;;17.80;99.90;;;;;;5048921;28;20992;-73
2022/07/27 01:15:14;;;;;;;4.63;2.27;;;17.80;99.90;;;;;;5049901;28;20476;-73
2022/07/27 01:17:40;;;;;;;2.40;2.00;;;17.80;99.90;;;;;;5049182;28;20457;-73
2022/07/27 01:20:09;;;;;;;2.43;2.23;;;17.80;99.90;;;;;;5049637;28;20481;-73
2022/07/27 01:22:37;;;;;;;4.70;2.57;;;17.80;99.90;;;;;;5049947;28;20467;-73
2022/07/27 01:25:05;;;;;;;3.30;1.87;;;17.80;99.90;;;;;;5049281;28;20500;-73
2022/07/27 01:27:31;;;;;;;3.00;1.97;;;17.80;99.90;;;;;;5049420;28;20438;-73
2022/07/27 01:29:58;;;;;;;4.47;2.17;;;17.80;99.90;;;;;;5049670;28;20509;-73
2022/07/27 01:32:25;;;;;;;2.70;2.43;;;17.70;99.90;;;;;;5051254;28;20423;-73
2022/07/27 01:34:51;;;;;;;6.20;2.10;;;17.70;99.90;;;;;;5052345;28;20969;-73
2022/07/27 01:37:18;;;;;;;3.00;2.10;;;17.70;99.90;;;;;;5052530;28;20442;-73
2022/07/27 01:39:46;;;;;;;2.43;2.23;;;17.70;99.90;;;;;;5049713;28;20423;-73
2022/07/27 01:42:15;;;;;;;3.97;2.20;;;17.60;99.90;;;;;;5051233;28;20427;-73
2022/07/27 01:44:41;;;;;;;2.37;2.17;;;17.50;99.90;;;;;;5052652;28;20423;-73
2022/07/27 01:47:08;;;;;;;4.30;2.20;;;17.50;99.90;;;;;;5052247;28;20450;-73
2022/07/27 01:49:35;;;;;;;2.07;1.97;;;17.50;99.90;;;;;;5053055;28;20489;-73
2022/07/27 01:52:01;;;;;;;2.43;2.23;;;17.50;99.90;;;;;;5052445;28;20514;-73
2022/07/27 01:54:28;;;;;;;2.27;2.07;;;17.50;99.90;;;;;;5050687;28;20488;-73
2022/07/27 01:56:56;;;;;;;6.30;2.53;;;17.50;99.90;;;;;;5052181;28;20862;-73
2022/07/27 01:59:23;;;;;;;6.83;2.60;;;17.50;99.90;;;;;;5053138;28;20459;-73
2022/07/27 02:01:49;;;;;;;2.57;2.37;;;17.40;99.90;;;;;;5052881;28;20453;-73
2022/07/27 02:04:17;;;;;;;3.30;2.17;;;17.40;99.90;;;;;;5052881;28;20911;-74
2022/07/27 02:06:43;;;;;;;8.70;2.13;;;17.40;99.90;;;;;;5052300;28;20480;-73
2022/07/27 02:09:10;;;;;;;4.70;2.13;;;17.30;99.90;;;;;;5052756;28;20448;-73
2022/07/27 02:14:22;;;;;;;3.63;2.30;;;17.30;99.90;;;;;;5050306;28;21094;-73
2022/07/27 02:16:49;;;;;;;3.30;2.20;;;17.30;99.90;;;;;;5052493;28;20468;-73
2022/07/27 02:19:15;;;;;;;6.40;2.37;;;17.30;99.90;;;;;;5053051;28;20453;-73
2022/07/27 02:21:42;;;;;;;8.87;2.33;;;17.20;99.90;;;;;;5052048;28;20793;-74
2022/07/27 02:24:09;;;;;;;2.67;2.27;;;17.20;99.90;;;;;;5052000;28;20440;-74
2022/07/27 02:26:35;;;;;;;7.33;2.63;;;17.20;99.90;;;;;;5051471;28;20455;-74
2022/07/27 02:29:02;;;;;;;4.80;2.37;;;17.20;99.90;;;;;;5051850;28;20460;-73
2022/07/27 02:31:30;;;;;;;5.30;2.40;;;17.20;99.90;;;;;;5051976;28;20441;-73
2022/07/27 02:33:57;;;;;;;5.80;2.43;;;17.10;99.90;;;;;;5049949;28;20489;-73
2022/07/27 02:36:23;;;;;;;3.40;2.33;;;17.10;99.90;;;;;;5051173;28;20480;-73
2022/07/27 02:38:50;;;;;;;8.10;2.57;;;17.10;99.90;;;;;;5051574;28;20431;-74
2022/07/27 02:41:17;;;;;;;3.37;2.23;;;17.00;99.90;;;;;;5047975;28;20490;-74
2022/07/27 02:43:43;;;;;;;4.17;2.13;;;17.00;99.90;;;;;;5052124;28;20531;-74
2022/07/27 02:46:10;;;;;;;5.07;2.20;;;17.00;99.90;;;;;;5051373;28;21010;-73
2022/07/27 02:48:38;;;;;;;6.33;2.30;;;17.00;99.90;;;;;;5051459;28;20956;-74
2022/07/27 02:51:05;;;;;;;8.93;2.37;;;17.00;99.90;;;;;;5051499;28;20419;-74
2022/07/27 02:53:32;;;;;;;5.20;2.40;;;17.00;99.90;;;;;;5051208;28;21007;-74
2022/07/27 02:55:59;;;;;;;3.60;2.40;;;17.00;99.90;;;;;;5050612;28;20815;-73
2022/07/27 02:58:25;;;;;;;7.00;2.43;;;17.00;99.90;;;;;;5050719;28;20443;-74
2022/07/27 03:00:53;;;;;;;7.00;2.63;;;17.00;99.90;;;;;;5050738;28;20774;-73
2022/07/27 03:03:19;;;;;;;5.07;2.73;;;17.00;99.90;;;;;;5051746;28;20836;-73
2022/07/27 03:05:48;;;;;;;3.50;2.30;;;17.00;99.90;;;;;;5051533;28;20498;-73
2022/07/27 03:08:15;;;;;;;6.87;2.27;;;16.90;99.90;;;;;;5050793;28;20979;-73
2022/07/27 03:10:42;;;;;;;9.20;2.40;;;16.90;99.90;;;;;;5047688;28;20424;-73
2022/07/27 03:13:08;;;;;;;7.13;2.40;;;16.90;99.90;;;;;;5048147;28;20448;-74
2022/07/27 03:15:35;;;;;;;11.30;2.47;;;16.90;99.90;;;;;;5051439;28;20480;-74
2022/07/27 03:18:02;;;;;;;3.40;2.20;;;16.90;99.90;;;;;;5051739;28;20915;-74
2022/07/27 03:20:29;;;;;;;7.07;2.60;;;16.90;99.90;;;;;;5051399;28;20914;-74
2022/07/27 03:22:57;;;;;;;3.30;2.50;;;16.90;99.90;;;;;;5051149;28;20477;-74
2022/07/27 03:25:24;;;;;;;6.57;2.30;;;16.80;99.90;;;;;;5050849;28;20435;-74
2022/07/27 03:27:51;;;;;;;2.70;2.43;;;16.80;99.90;;;;;;5051421;28;20439;-74
2022/07/27 03:30:18;;;;;;;3.77;2.30;;;16.80;99.90;;;;;;5050884;28;20507;-73
2022/07/27 03:32:44;;;;;;;7.53;2.30;;;16.80;99.90;;;;;;5051355;28;20444;-74
2022/07/27 03:35:11;;;;;;;3.90;2.90;;;16.90;99.90;;;;;;5048865;28;20455;-74
2022/07/27 03:37:38;;;;;;;6.77;2.70;;;16.80;99.90;;;;;;5050293;28;20539;-74
2022/07/27 03:40:08;;;;;;;7.90;2.53;;;16.80;99.90;;;;;;5050841;28;20471;-74
2022/07/27 03:42:34;;;;;;;5.10;2.77;;;16.80;99.90;;;;;;5050502;28;20419;-74
2022/07/27 03:45:01;;;;;;;4.07;2.40;;;16.70;99.90;;;;;;5050764;28;20865;-74
2022/07/27 03:47:28;;;;;;;7.90;2.80;;;16.70;99.90;;;;;;5050540;28;20447;-74
2022/07/27 03:49:54;;;;;;;5.10;2.33;;;16.60;99.90;;;;;;5050453;28;20459;-74
2022/07/27 03:52:21;;;;;;;4.50;2.37;;;16.60;99.90;;;;;;5050119;28;20879;-74
2022/07/27 03:54:48;;;;;;;5.27;2.73;;;16.60;99.90;;;;;;5050022;28;20585;-74
2022/07/27 03:57:16;;;;;;;2.80;2.20;;;16.60;99.90;;;;;;5049995;28;20454;-74
2022/07/27 03:59:42;;;;;;;3.70;2.53;;;16.60;99.90;;;;;;5050109;28;20457;-74
2022/07/27 04:02:09;;;;;;;4.80;2.53;;;16.50;99.90;;;;;;5050099;28;20453;-74
2022/07/27 04:04:36;;;;;;;3.90;2.37;;;16.50;99.90;;;;;;5050229;28;20453;-74
2022/07/27 04:07:02;;;;;;;7.30;2.50;;;16.50;99.90;;;;;;5050253;28;20450;-74
2022/07/27 04:09:29;;;;;;;5.93;2.80;;;16.50;99.90;;;;;;5049406;28;20483;-75
2022/07/27 04:11:56;;;;;;;24.07;3.43;;;16.50;99.90;;;;;;5050468;28;20450;-74
2022/07/27 04:14:24;;;;;;;4.70;2.40;;;16.70;99.90;;;;;;5047670;28;20532;-75
2022/07/27 04:16:50;;;;;;;6.67;2.50;;;16.80;99.90;;;;;;5050082;28;20454;-74
2022/07/27 04:19:17;;;;;;;5.17;2.70;;;16.90;99.90;;;;;;5050307;28;20423;-74
2022/07/27 04:21:44;;;;;;;8.20;2.43;;;17.00;99.90;;;;;;5050732;28;20427;-74
2022/07/27 04:24:11;;;;;;;6.50;2.70;;;17.10;99.90;;;;;;5047025;28;20475;-74
2022/07/27 04:26:37;;;;;;;5.80;2.67;;;17.10;99.90;;;;;;5050511;28;20447;-73
2022/07/27 04:29:04;;;;;;;5.50;2.70;;;17.20;99.90;;;;;;5049999;28;20484;-74
2022/07/27 04:31:32;;;;;;;3.90;2.40;;;17.20;99.90;;;;;;5048718;28;20439;-73
2022/07/27 04:33:59;;;;;;;5.97;2.87;;;17.20;99.90;;;;;;5050264;28;20530;-73
2022/07/27 04:36:26;;;;;;;5.57;2.83;;;17.20;99.90;;;;;;5049646;28;20499;-74
2022/07/27 04:38:52;;;;;;;6.73;3.20;;;17.20;99.90;;;;;;5049587;28;20423;-73
2022/07/27 04:41:19;;;;;;;6.60;3.03;;;17.20;99.90;;;;;;5049703;28;20419;-73
2022/07/27 04:43:46;;;;;;;3.63;2.30;;;17.20;99.90;;;;;;5049985;28;20477;-74
2022/07/27 04:46:13;;;;;;;5.03;2.53;;;17.20;99.90;;;;;;5049150;28;20481;-74
2022/07/27 04:48:42;;;;;;;10.40;2.90;;;17.20;99.90;;;;;;5049451;28;20448;-73
2022/07/27 04:51:12;;;;;;;5.87;2.70;;;17.30;99.90;;;;;;5050006;28;20419;-74
2022/07/27 04:53:39;;;;;;;5.10;2.73;;;17.30;99.90;;;;;;5049395;28;20489;-74
2022/07/27 04:56:06;;;;;;;6.30;2.50;;;17.40;99.90;;;;;;5048945;28;20458;-73
2022/07/27 04:58:32;;;;;;;5.77;2.20;;;17.50;99.90;;;;;;5049590;28;20510;-74
2022/07/27 05:00:59;;;;;;;4.83;2.60;;;17.50;99.90;;;;;;5049671;28;20824;-74
2022/07/27 05:03:26;;;;;;;11.33;2.60;;;17.60;99.90;;;;;;5049802;28;21013;-74
2022/07/27 05:05:54;;;;;;;9.50;3.13;;;17.70;99.90;;;;;;5053035;28;20427;-74
2022/07/27 05:08:20;;;;;;;4.93;2.67;;;17.70;99.90;;;;;;5052950;28;20443;-74
2022/07/27 05:10:48;;;;;;;5.43;2.60;;;17.80;99.90;;;;;;5053072;28;20922;-74
2022/07/27 05:13:14;;;;;;;9.63;3.00;;;17.90;99.90;;;;;;5053156;28;20430;-74
2022/07/27 05:15:41;;;;;;;4.50;2.50;;;17.90;99.90;;;;;;5052594;28;20503;-74
2022/07/27 05:18:08;;;;;;;12.60;3.00;;;17.90;99.90;;;;;;5053114;28;21039;-74
2022/07/27 05:20:34;;;;;;;3.43;2.63;;;17.90;99.90;;;;;;5052828;28;20427;-74
2022/07/27 05:23:02;;;;;;;3.67;2.60;;;17.80;99.90;;;;;;5052806;28;20431;-73
2022/07/27 05:25:29;;;;;;;5.10;2.40;;;17.80;99.90;;;;;;5052750;28;20500;-73
2022/07/27 05:27:56;;;;;;;9.83;2.53;;;17.80;99.90;;;;;;5052894;28;20582;-74
2022/07/27 05:30:24;;;;;;;4.60;2.60;;;17.80;99.90;;;;;;5052866;28;20448;-74
2022/07/27 05:32:50;;;;;;;6.10;2.83;;;17.90;99.90;;;;;;5052960;28;20923;-74
2022/07/27 05:35:17;;;;;;;4.90;2.37;;;17.90;99.90;;;;;;5052431;28;20472;-74
2022/07/27 05:37:45;;;;;;;7.73;2.27;;;18.00;99.90;;;;;;5052595;28;20486;-74
2022/07/27 05:40:13;;;;;;;8.73;2.70;;;18.00;99.90;;;;;;5052478;28;20510;-74
2022/07/27 05:42:42;;;;;;;13.60;2.67;;;18.10;99.90;;;;;;5053059;28;20423;-74
2022/07/27 05:45:10;;;;;;;5.10;2.90;;;18.10;99.90;;;;;;5052629;28;20524;-73
2022/07/27 05:47:37;;;;;;;6.40;2.80;;;18.20;99.90;;;;;;5052168;28;21024;-74
2022/07/27 05:50:04;;;;;;;10.10;2.60;;;18.10;99.90;;;;;;5052746;28;20938;-73
2022/07/27 05:52:31;;;;;;;7.17;2.23;;;18.10;99.90;;;;;;5052025;28;20456;-73
2022/07/27 05:54:58;;;;;;;3.40;2.13;;;18.00;99.90;;;;;;5052413;28;21048;-73
2022/07/27 05:57:26;;;;;;;7.80;2.20;;;18.20;99.90;;;;;;5051035;28;20735;-72
2022/07/27 05:59:53;;;;;;;4.60;2.20;;;18.10;99.90;;;;;;5051560;28;20462;-70
2022/07/27 06:02:20;;;;;;;7.20;2.70;;;17.90;99.90;;;;;;5049181;28;20573;-70
2022/07/27 06:04:47;;;;;;;7.23;2.53;;;17.70;99.90;;;;;;5047961;28;21265;-70
2022/07/27 06:09:59;;;;;;;3.80;2.80;;;17.60;99.90;;;;;;5048065;28;20981;-70
2022/07/27 06:12:27;;;;;;;4.07;2.10;;;17.50;99.90;;;;;;5048304;28;20467;-70
2022/07/27 06:14:54;;;;;;;5.03;2.40;;;17.40;99.90;;;;;;5048363;28;20480;-70
2022/07/27 06:17:21;;;;;;;9.60;2.30;;;17.40;99.90;;;;;;5047529;28;20482;-70
2022/07/27 06:19:47;;;;;;;6.33;2.30;;;17.50;99.90;;;;;;5048104;28;20452;-70
2022/07/27 06:22:14;;;;;;;9.80;2.70;;;17.50;99.90;;;;;;5047760;28;20423;-70
2022/07/27 06:24:41;;;;;;;16.63;2.23;;;17.60;99.90;;;;;;5048424;28;20600;-70
2022/07/27 06:27:07;;;;;;;4.70;2.20;;;17.70;99.90;;;;;;5047471;28;20476;-71
2022/07/27 06:29:35;;;;;;;5.50;2.30;;;17.90;99.90;;;;;;5048317;28;20424;-71
2022/07/27 06:32:02;;;;;;;5.73;2.13;;;18.20;99.90;;;;;;5048552;28;20481;-70
2022/07/27 06:34:29;;;;;;;5.50;2.00;;;18.50;99.90;;;;;;5047724;28;20449;-70
2022/07/27 06:36:58;;;;;;;6.07;2.40;;;18.60;99.90;;;;;;5047953;28;20464;-71
2022/07/27 06:39:24;;;;;;;8.73;2.07;;;18.80;99.90;;;;;;5047607;28;20442;-70
2022/07/27 06:41:51;;;;;;;6.70;2.33;;;18.70;99.90;;;;;;5047468;28;20836;-70
2022/07/27 06:44:17;;;;;;;10.87;2.10;;;18.60;99.90;;;;;;5048169;28;20435;-70
2022/07/27 06:46:46;;;;;;;7.10;2.33;;;18.60;99.90;;;;;;5047732;28;20504;-71
2022/07/27 06:49:13;;;;;;;14.30;2.00;;;18.60;99.90;;;;;;5047944;28;20467;-71
2022/07/27 06:51:39;;;;;;;15.33;2.33;;;18.60;99.90;;;;;;5047952;28;20487;-70
2022/07/27 06:54:06;;;;;;;6.57;1.90;;;18.60;99.90;;;;;;5047205;28;20492;-71
2022/07/27 06:56:33;;;;;;;10.17;2.20;;;18.60;99.90;;;;;;5047384;28;20476;-71
2022/07/27 06:59:00;;;;;;;13.83;2.40;;;18.80;99.90;;;;;;5048751;28;20431;-72
2022/07/27 07:01:26;;;;;;;8.87;2.20;;;18.80;99.90;;;;;;5049124;28;20427;-72
2022/07/27 07:03:58;;;;;;;5.70;2.10;;;18.70;99.90;;;;;;5047111;28;20448;-71
2022/07/27 07:06:25;;;;;;;7.77;2.00;;;18.90;99.90;;;;;;5047820;28;21674;-74
2022/07/27 07:08:52;;;;;;;3.03;2.00;;;19.00;99.90;;;;;;5048138;28;20795;-73
2022/07/27 07:11:19;;;;;;;12.03;2.37;;;19.30;99.90;;;;;;5048116;28;20452;-71
2022/07/27 07:13:45;;;;;;;6.83;1.97;;;19.50;99.90;;;;;;5048357;28;20461;-73
2022/07/27 07:16:12;;;;;;;5.63;1.77;;;19.50;99.90;;;;;;5047870;28;20463;-72
2022/07/27 07:18:39;;;;;;;8.10;1.80;;;19.60;99.90;;;;;;5047967;28;20505;-73
2022/07/27 07:21:07;;;;;;;4.33;2.00;;;19.60;99.90;;;;;;5047383;28;20510;-72
2022/07/27 07:23:33;;;;;;;4.57;1.93;;;19.70;99.90;;;;;;5048259;28;20420;-73
2022/07/27 07:26:00;;;;;;;5.33;2.10;;;19.90;99.90;;;;;;5046731;28;20498;-71
2022/07/27 07:28:27;;;;;;;9.77;1.80;;;20.20;99.90;;;;;;5047643;28;20473;-71
2022/07/27 07:30:53;;;;;;;3.43;1.70;;;20.40;99.90;;;;;;5047445;28;20502;-71
2022/07/27 07:33:20;;;;;;;3.10;1.80;;;20.60;99.90;;;;;;5047653;28;21057;-71
2022/07/27 07:35:47;;;;;;;7.20;2.00;;;20.90;99.90;;;;;;5047303;28;21058;-71
2022/07/27 07:38:15;;;;;;;4.70;2.20;;;21.00;99.90;;;;;;5047541;28;20480;-72
2022/07/27 07:40:42;;;;;;;4.10;2.00;;;21.10;99.90;;;;;;5047003;28;20823;-72
2022/07/27 07:43:08;;;;;;;6.33;1.77;;;21.20;99.90;;;;;;5047342;28;20795;-71
2022/07/27 07:45:37;;;;;;;5.03;1.97;;;21.00;99.90;;;;;;5047720;28;20452;-71
2022/07/27 07:48:06;;;;;;;3.80;1.73;;;21.10;99.90;;;;;;5046942;28;20560;-70
2022/07/27 07:50:33;;;;;;;6.80;1.60;;;20.90;99.90;;;;;;5047174;28;20447;-71
2022/07/27 07:52:59;;;;;;;2.90;1.60;;;21.00;99.90;;;;;;5047029;28;20510;-72
2022/07/27 07:55:28;;;;;;;8.60;1.87;;;21.10;99.90;;;;;;5046251;28;20480;-71
2022/07/27 07:57:58;;;;;;;5.13;1.70;;;21.10;99.90;;;;;;5047018;28;20470;-71
2022/07/27 08:00:25;;;;;;;2.30;1.40;;;21.10;99.90;;;;;;5046524;28;20454;-71
2022/07/27 08:02:56;;;;;;;4.63;1.80;;;21.20;99.90;;;;;;5046710;28;20444;-71
2022/07/27 08:05:23;;;;;;;8.83;1.60;;;21.10;99.90;;;;;;5047410;28;20544;-71
2022/07/27 08:07:51;;;;;;;3.70;1.60;;;21.10;99.90;;;;;;5047470;28;20472;-71
2022/07/27 08:10:19;;;;;;;4.33;1.80;;;21.10;99.90;;;;;;5046989;28;20457;-70
2022/07/27 08:12:50;;;;;;;5.90;1.73;;;21.40;99.90;;;;;;5046670;28;20456;-71
2022/07/27 08:15:18;;;;;;;7.93;2.00;;;21.20;99.90;;;;;;5046072;28;20510;-72
2022/07/27 08:17:45;;;;;;;3.73;1.70;;;21.50;99.90;;;;;;5047120;28;20518;-73
2022/07/27 08:20:13;;;;;;;3.10;1.70;;;21.80;99.90;;;;;;5047164;28;20444;-73
2022/07/27 08:22:40;;;;;;;4.37;1.60;;;22.20;99.90;;;;;;5047433;28;20866;-73
2022/07/27 08:25:08;;;;;;;4.00;1.90;;;22.20;99.90;;;;;;5046819;28;21037;-72
2022/07/27 08:27:34;;;;;;;5.13;1.80;;;22.50;99.90;;;;;;5046795;28;20471;-73
2022/07/27 08:30:04;;;;;;;2.67;1.30;;;22.40;99.90;;;;;;5047044;28;20518;-73
2022/07/27 08:32:30;;;;;;;4.33;2.00;;;22.30;99.90;;;;;;5047198;28;20859;-73
2022/07/27 08:34:57;;;;;;;4.10;1.77;;;22.30;99.90;;;;;;5045410;28;20518;-73
2022/07/27 08:37:24;;;;;;;4.57;1.60;;;22.40;99.90;;;;;;5047029;28;20464;-73
2022/07/27 08:39:50;;;;;;;3.40;1.60;;;22.50;99.90;;;;;;5046677;28;20460;-73
2022/07/27 08:42:18;;;;;;;9.13;1.77;;;22.60;99.90;;;;;;5051382;28;20449;-73
2022/07/27 08:44:46;;;;;;;3.30;2.00;;;23.10;99.90;;;;;;5050727;28;20951;-73
2022/07/27 08:47:15;;;;;;;2.47;1.50;;;23.20;99.90;;;;;;5050148;28;20906;-73
2022/07/27 08:49:42;;;;;;;4.80;1.77;;;23.30;99.90;;;;;;5050562;28;20540;-73
2022/07/27 08:52:10;;;;;;;3.13;1.60;;;23.50;99.90;;;;;;5050639;28;20464;-73
2022/07/27 08:54:40;;;;;;;1.90;1.30;;;23.50;99.90;;;;;;5050414;28;20480;-73
2022/07/27 08:57:08;;;;;;;3.30;1.73;;;23.70;99.90;;;;;;5050607;28;20496;-73
2022/07/27 08:59:35;;;;;;;3.90;1.50;;;23.60;99.90;;;;;;5050149;28;20448;-73
2022/07/27 09:02:01;;;;;;;4.70;1.60;;;23.60;99.90;;;;;;5050301;28;20514;-73
2022/07/27 09:04:30;;;;;;;4.13;1.80;;;23.70;99.90;;;;;;5050740;28;20498;-73
2022/07/27 09:06:57;;;;;;;3.40;1.57;;;23.90;99.90;;;;;;5048481;28;20470;-73
2022/07/27 09:09:23;;;;;;;4.77;1.70;;;24.10;99.90;;;;;;5048766;28;20952;-73
2022/07/27 09:12:07;;;;;;;5.07;1.63;;;24.10;99.90;;;;;;5050557;28;20867;-73
2022/07/27 09:14:36;;;;;;;4.47;1.53;;;23.70;99.90;;;;;;5048897;28;20986;-74
2022/07/27 09:17:23;;;;;;;4.80;2.37;;;23.80;99.90;;;;;;5049753;28;20922;-74
2022/07/27 09:19:55;;;;;;;5.93;1.90;;;23.70;99.90;;;;;;5047417;28;20464;-73
2022/07/27 09:22:48;;;;;;;5.50;1.80;;;23.80;99.90;;;;;;5049478;28;20452;-74
2022/07/27 09:25:16;;;;;;;8.13;2.10;;;23.30;99.90;;;;;;5049633;28;20444;-74
2022/07/27 09:27:44;;;;;;;5.10;1.77;;;23.10;99.90;;;;;;5048657;28;20460;-73
2022/07/27 09:30:14;;;;;;;4.80;1.63;;;22.90;99.90;;;;;;5048720;28;20445;-73
2022/07/27 09:32:53;;;;;;;7.97;1.70;;;22.70;99.90;;;;;;5049302;28;20615;-73
2022/07/27 09:35:25;;;;;;;10.50;1.63;;;22.70;99.90;;;;;;5047813;28;20448;-73
2022/07/27 09:37:51;;;;;;;2.60;1.50;;;22.80;99.90;;;;;;5048774;28;20472;-73
2022/07/27 09:40:20;;;;;;;4.07;1.37;;;23.20;99.90;;;;;;5048422;28;20940;-73
2022/07/27 09:42:46;;;;;;;4.43;1.77;;;23.70;99.90;;;;;;5048702;28;20498;-73
2022/07/27 09:45:31;;;;;;;4.70;1.80;;;24.00;99.90;;;;;;5047983;28;20456;-73
2022/07/27 09:48:12;;;;;;;3.37;1.57;;;24.20;99.90;;;;;;5048305;28;20484;-73
2022/07/27 09:50:43;;;;;;;12.17;1.87;;;24.60;99.90;;;;;;5048191;28;20471;-73
2022/07/27 09:53:19;;;;;;;9.00;2.10;;;24.60;99.90;;;;;;5048126;28;20452;-73
2022/07/27 09:55:55;;;;;;;8.60;1.97;;;24.90;99.90;;;;;;5047624;28;21057;-73
2022/07/27 09:58:21;;;;;;;3.97;1.37;;;25.10;99.90;;;;;;5048579;28;20464;-73
2022/07/27 10:00:56;;;;;;;4.97;1.40;;;25.20;99.90;;;;;;5048792;28;20461;-73
2022/07/27 10:03:23;;;;;;;6.00;1.87;;;25.50;99.90;;;;;;5048966;28;20851;-74
2022/07/27 10:05:51;;;;;;;5.53;1.80;;;25.70;99.90;;;;;;5044480;28;20494;-73
2022/07/27 10:08:18;;;;;;;3.40;1.50;;;25.50;99.90;;;;;;5047857;28;20814;-74
2022/07/27 10:10:45;;;;;;;3.63;1.27;;;25.70;99.30;;;;;;5046627;28;20476;-74
2022/07/27 10:13:12;;;;;;;3.97;1.67;;;25.70;99.50;;;;;;5049298;28;20452;-73
2022/07/27 10:15:40;;;;;;;1.97;1.33;;;25.70;98.30;;;;;;5047255;28;20543;-74
2022/07/27 10:18:12;;;;;;;4.90;1.40;;;25.90;98.30;;;;;;5048294;28;20555;-74
2022/07/27 10:20:41;;;;;;;4.97;1.50;;;26.20;97.40;;;;;;5047998;28;20456;-74
2022/07/27 10:23:25;;;;;;;2.50;1.50;;;26.40;97.70;;;;;;5046640;28;20962;-74
2022/07/27 10:26:12;;;;;;;4.00;1.40;;;26.60;96.00;;;;;;5048128;28;20448;-73
2022/07/27 10:28:49;;;;;;;5.53;1.70;;;26.30;96.80;;;;;;5047510;28;21743;-73
2022/07/27 10:31:17;;;;;;;4.37;1.80;;;26.40;96.90;;;;;;5047907;28;20507;-72
2022/07/27 10:33:45;;;;;;;6.90;1.80;;;26.60;96.50;;;;;;5047678;28;20449;-73
2022/07/27 10:36:15;;;;;;;5.10;1.57;;;26.40;96.40;;;;;;5047903;28;20476;-74
2022/07/27 10:38:49;;;;;;;7.13;1.70;;;25.80;96.90;;;;;;5047716;28;20445;-72
2022/07/27 10:41:24;;;;;;;4.90;1.80;;;25.20;97.90;;;;;;5047704;28;20460;-73
2022/07/27 10:44:11;;;;;;;8.20;1.40;;;25.40;97.70;;;;;;5046947;28;20448;-73
2022/07/27 10:46:38;;;;;;;3.97;1.53;;;25.90;98.20;;;;;;5047655;28;21223;-72
2022/07/27 10:49:17;;;;;;;6.63;1.83;;;26.30;96.90;;;;;;5047702;28;20943;-73
2022/07/27 10:51:44;;;;;;;10.20;2.30;;;26.20;96.70;;;;;;5048193;28;20515;-73
2022/07/27 10:54:22;;;;;;;7.30;1.93;;;25.90;96.80;;;;;;5046893;28;20502;-72
2022/07/27 10:56:50;;;;;;;2.50;1.30;;;25.90;97.20;;;;;;5047356;28;20507;-74
2022/07/27 10:59:48;;;;;;;6.70;1.63;;;26.40;95.70;;;;;;5046729;28;20528;-74
2022/07/27 11:02:17;;;;;;;5.33;1.30;;;27.00;96.00;;;;;;5046987;28;20527;-74
2022/07/27 11:04:46;;;;;;;6.40;1.93;;;27.30;95.00;;;;;;5047350;28;20444;-73
2022/07/27 11:07:17;;;;;;;7.83;1.50;;;27.50;94.40;;;;;;5047551;28;20461;-73
2022/07/27 11:09:47;;;;;;;4.27;1.87;;;27.40;94.20;;;;;;5046347;28;20893;-74
2022/07/27 11:12:15;;;;;;;7.00;1.90;;;27.50;94.60;;;;;;5046529;28;20460;-73
2022/07/27 11:14:49;;;;;;;3.33;1.20;;;27.50;94.10;;;;;;5047605;28;20448;-73
2022/07/27 11:17:17;;;;;;;4.93;1.50;;;27.50;94.10;;;;;;5047783;28;20488;-73
2022/07/27 11:19:43;;;;;;;4.60;1.90;;;27.10;94.20;;;;;;5047729;28;20508;-73
2022/07/27 11:22:10;;;;;;;9.90;1.80;;;27.00;94.00;;;;;;5047519;28;20568;-72
2022/07/27 11:24:37;;;;;;;3.80;1.40;;;26.70;94.20;;;;;;5047430;28;20448;-72
2022/07/27 11:27:05;;;;;;;3.60;1.80;;;26.30;94.40;;;;;;5047271;28;21004;-73
2022/07/27 11:29:36;;;;;;;2.60;1.50;;;25.80;94.90;;;;;;5047606;28;20456;-72
2022/07/27 11:32:03;;;;;;;4.03;1.60;;;25.70;95.60;;;;;;5047502;28;20448;-73
2022/07/27 11:34:31;;;;;;;3.53;1.13;;;26.00;95.50;;;;;;5047055;28;20449;-73
2022/07/27 11:37:00;;;;;;;8.70;1.50;;;26.40;94.20;;;;;;5046935;28;20487;-73
2022/07/27 11:39:30;;;;;;;3.90;1.40;;;26.70;94.40;;;;;;5046758;28;20464;-72
2022/07/27 11:41:58;;;;;;;3.97;1.50;;;26.50;93.80;;;;;;5047141;28;20498;-73
2022/07/27 11:44:27;;;;;;;2.17;1.20;;;26.30;94.20;;;;;;5046854;28;20460;-73
2022/07/27 11:46:54;;;;;;;3.67;1.53;;;26.30;94.30;;;;;;5046236;28;20834;-73
2022/07/27 11:49:25;;;;;;;3.70;1.43;;;26.30;94.30;;;;;;5046679;28;20456;-73
2022/07/27 11:51:53;;;;;;;4.00;1.47;;;26.40;94.70;;;;;;5046926;28;20452;-73
2022/07/27 11:54:21;;;;;;;4.87;1.70;;;26.50;94.10;;;;;;5046513;28;20498;-73
2022/07/27 11:56:49;;;;;;;5.53;1.90;;;26.20;93.80;;;;;;5046281;28;20488;-73
2022/07/27 11:59:18;;;;;;;6.37;1.70;;;25.90;94.10;;;;;;5046297;28;20453;-72
2022/07/27 12:01:49;;;;;;;4.50;1.50;;;25.60;94.50;;;;;;5047052;28;20456;-73
2022/07/27 12:04:21;;;;;;;1.90;1.70;;;25.90;94.70;;;;;;5046609;28;20827;-73
2022/07/27 12:06:59;;;;;;;3.33;1.73;;;26.00;94.00;;;;;;5046095;28;20460;-73
2022/07/27 12:09:27;;;;;;;3.00;1.60;;;25.70;94.80;;;;;;5045771;28;20511;-73
2022/07/27 12:11:57;;;;;;;2.43;1.30;;;26.20;94.90;;;;;;5045115;28;20541;-74
2022/07/27 12:14:35;;;;;;;5.23;2.00;;;26.30;94.00;;;;;;5045185;28;20452;-72
2022/07/27 12:17:12;;;;;;;2.90;1.50;;;26.20;94.00;;;;;;5046249;28;20476;-74
2022/07/27 12:19:39;;;;;;;4.43;1.73;;;25.90;94.30;;;;;;5046149;28;20873;-73
2022/07/27 12:22:06;;;;;;;9.03;1.90;;;25.60;94.80;;;;;;5046082;28;20460;-73
2022/07/27 12:24:35;;;;;;;2.40;1.70;;;25.70;94.60;;;;;;5045663;28;20448;-72
2022/07/27 12:27:03;;;;;;;4.23;1.97;;;26.10;94.50;;;;;;5045907;28;20987;-73
2022/07/27 12:29:30;;;;;;;4.53;1.70;;;26.30;93.90;;;;;;5046227;28;20882;-72
2022/07/27 12:32:02;;;;;;;7.00;1.70;;;26.10;93.70;;;;;;5045789;28;20539;-73
2022/07/27 12:34:34;;;;;;;3.00;1.87;;;26.10;93.60;;;;;;5044068;28;20448;-73
2022/07/27 12:37:01;;;;;;;8.47;1.73;;;26.10;93.80;;;;;;5045797;28;20546;-73
2022/07/27 12:39:29;;;;;;;3.00;1.70;;;25.90;93.10;;;;;;5046251;28;20444;-74
2022/07/27 12:42:03;;;;;;;1.83;1.20;;;25.80;93.80;;;;;;5045659;28;20448;-74
2022/07/27 12:44:33;;;;;;;4.20;1.53;;;25.60;93.80;;;;;;5046431;28;20458;-74
2022/07/27 12:47:01;;;;;;;6.23;1.80;;;25.50;93.90;;;;;;5045620;28;20468;-74
2022/07/27 12:49:33;;;;;;;3.23;1.37;;;25.40;94.00;;;;;;5046035;28;20452;-74
2022/07/27 12:52:06;;;;;;;2.20;1.80;;;25.40;94.30;;;;;;5046101;28;20455;-74
2022/07/27 12:54:33;;;;;;;2.30;1.53;;;25.40;94.70;;;;;;5045413;28;20452;-74
2022/07/27 12:57:00;;;;;;;4.40;1.80;;;25.30;94.40;;;;;;5044588;28;20987;-74